createdAt,value
2019-04-30T00:01:33.581Z,24.93
2019-04-30T00:04:06.567Z,24.13
2019-04-30T00:06:39.544Z,23.63
2019-04-30T00:09:15.140Z,24.07
2019-04-30T00:11:41.463Z,25.33
2019-04-30T00:14:10.873Z,24.83
2019-04-30T00:16:40.171Z,24.70
2019-04-30T00:19:10.621Z,24.33
2019-04-30T00:21:40.535Z,24.73
2019-04-30T00:24:10.401Z,24.60
2019-04-30T00:26:40.054Z,25.27
2019-04-30T00:29:10.612Z,23.90
2019-04-30T00:31:40.086Z,23.07
2019-04-30T00:34:09.503Z,22.97
2019-04-30T00:36:39.547Z,24.00
2019-04-30T00:39:13.234Z,23.97
2019-04-30T00:41:44.096Z,24.20
2019-04-30T00:44:12.252Z,23.90
2019-04-30T00:46:41.428Z,23.43
2019-04-30T00:49:16.055Z,24.33
2019-04-30T00:51:42.041Z,23.43
2019-04-30T00:54:12.202Z,25.57
2019-04-30T00:56:41.367Z,23.47
2019-04-30T00:59:10.796Z,24.27
2019-04-30T01:01:58.487Z,24.13
2019-04-30T01:04:34.963Z,24.13
2019-04-30T01:07:08.477Z,24.03
2019-04-30T01:09:39.625Z,24.13
2019-04-30T01:12:07.769Z,24.43
2019-04-30T01:14:38.643Z,23.23
2019-04-30T01:17:12.049Z,23.17
2019-04-30T01:19:39.649Z,23.70
2019-04-30T01:22:09.164Z,22.33
2019-04-30T01:24:38.776Z,22.97
2019-04-30T01:27:10.417Z,21.70
2019-04-30T01:29:44.093Z,22.00
2019-04-30T01:32:17.596Z,23.13
2019-04-30T01:34:44.316Z,22.80
2019-04-30T01:37:14.707Z,22.63
2019-04-30T01:39:44.435Z,21.83
2019-04-30T01:42:13.839Z,22.40
2019-04-30T01:44:50.375Z,22.23
2019-04-30T01:47:14.764Z,21.83
2019-04-30T01:49:44.835Z,22.03
2019-04-30T01:52:14.388Z,23.07
2019-04-30T01:54:43.900Z,22.87
2019-04-30T01:57:30.791Z,23.03
2019-04-30T02:00:25.505Z,20.97
2019-04-30T02:02:55.086Z,21.70
2019-04-30T02:05:24.246Z,22.57
2019-04-30T02:07:53.397Z,22.50
2019-04-30T02:10:23.440Z,22.50
2019-04-30T02:12:52.921Z,22.10
2019-04-30T02:15:22.345Z,21.57
2019-04-30T02:17:51.803Z,21.47
2019-04-30T02:20:21.860Z,20.57
2019-04-30T02:22:51.006Z,20.13
2019-04-30T02:25:20.945Z,20.83
2019-04-30T02:27:51.144Z,19.67
2019-04-30T02:30:21.043Z,20.47
2019-04-30T02:32:52.600Z,20.20
2019-04-30T02:35:40.492Z,20.87
2019-04-30T02:38:12.478Z,21.00
2019-04-30T02:40:42.650Z,20.37
2019-04-30T02:43:12.662Z,21.63
2019-04-30T02:45:42.729Z,21.30
2019-04-30T02:48:12.277Z,21.13
2019-04-30T02:50:43.171Z,21.13
2019-04-30T02:53:50.214Z,21.77
2019-04-30T02:56:20.131Z,20.27
2019-04-30T02:58:50.757Z,20.47
2019-04-30T03:01:20.604Z,20.37
2019-04-30T03:03:50.354Z,20.47
2019-04-30T03:06:20.473Z,20.70
2019-04-30T03:08:51.392Z,20.00
2019-04-30T03:11:21.729Z,20.50
2019-04-30T03:13:50.967Z,19.33
2019-04-30T03:16:24.399Z,20.10
2019-04-30T03:19:29.503Z,20.53
2019-04-30T03:22:03.164Z,20.60
2019-04-30T03:24:33.070Z,20.43
2019-04-30T03:27:02.230Z,21.70
2019-04-30T03:29:32.004Z,20.23
2019-04-30T03:32:03.703Z,20.80
2019-04-30T03:34:34.811Z,19.30
2019-04-30T03:37:04.802Z,19.97
2019-04-30T03:39:34.352Z,19.80
2019-04-30T03:42:03.796Z,19.73
2019-04-30T03:44:33.549Z,21.33
2019-04-30T03:47:04.558Z,21.93
2019-04-30T03:49:36.259Z,22.40
2019-04-30T03:52:05.723Z,22.27
2019-04-30T03:54:35.152Z,22.27
2019-04-30T03:57:04.335Z,22.70
2019-04-30T03:59:33.489Z,22.73
2019-04-30T04:02:20.831Z,22.40
2019-04-30T04:05:06.580Z,21.03
2019-04-30T04:07:59.838Z,21.53
2019-04-30T04:10:40.405Z,22.00
2019-04-30T04:13:10.424Z,22.03
2019-04-30T04:15:40.101Z,21.93
2019-04-30T04:18:10.671Z,23.00
2019-04-30T04:20:42.776Z,22.57
2019-04-30T04:23:12.335Z,22.07
2019-04-30T04:25:43.380Z,23.07
2019-04-30T04:28:12.546Z,22.77
2019-04-30T04:30:43.290Z,23.50
2019-04-30T04:33:13.782Z,22.60
2019-04-30T04:35:43.196Z,22.80
2019-04-30T04:38:13.021Z,23.27
2019-04-30T04:40:42.528Z,24.10
2019-04-30T04:43:11.690Z,23.30
2019-04-30T04:45:43.815Z,24.17
2019-04-30T04:48:12.564Z,22.67
2019-04-30T04:50:41.788Z,23.73
2019-04-30T04:53:11.756Z,23.10
2019-04-30T04:55:42.383Z,24.07
2019-04-30T04:58:12.935Z,23.57
2019-04-30T05:00:42.561Z,23.20
2019-04-30T05:03:25.989Z,23.27
2019-04-30T05:05:55.151Z,24.73
2019-04-30T05:08:24.337Z,24.03
2019-04-30T05:10:54.273Z,23.93
2019-04-30T05:13:24.896Z,23.97
2019-04-30T05:15:54.397Z,24.83
2019-04-30T05:18:23.593Z,24.07
2019-04-30T05:20:52.781Z,24.97
2019-04-30T05:23:23.513Z,24.00
2019-04-30T05:25:55.087Z,24.33
2019-04-30T05:28:24.311Z,24.70
2019-04-30T05:30:59.400Z,22.93
2019-04-30T05:33:29.008Z,24.97
2019-04-30T05:35:59.416Z,24.87
2019-04-30T05:38:31.251Z,24.00
2019-04-30T05:40:59.805Z,24.30
2019-04-30T05:43:31.147Z,24.13
2019-04-30T05:46:01.434Z,23.57
2019-04-30T05:48:30.620Z,23.37
2019-04-30T05:50:59.834Z,23.13
2019-04-30T05:53:29.057Z,22.70
2019-04-30T05:55:59.490Z,22.53
2019-04-30T05:58:29.966Z,22.43
2019-04-30T06:01:00.844Z,22.80
2019-04-30T06:03:33.213Z,22.60
2019-04-30T06:06:01.249Z,22.23
2019-04-30T06:08:39.271Z,22.20
2019-04-30T06:11:19.226Z,22.07
2019-04-30T06:14:13.598Z,22.50
2019-04-30T06:16:44.382Z,20.87
2019-04-30T06:19:13.597Z,20.27
2019-04-30T06:21:43.069Z,21.47
2019-04-30T06:24:12.350Z,19.90
2019-04-30T06:26:41.525Z,20.37
2019-04-30T06:29:10.932Z,19.53
2019-04-30T06:31:43.089Z,20.90
2019-04-30T06:34:12.635Z,19.60
2019-04-30T06:36:51.047Z,20.47
2019-04-30T06:39:16.131Z,19.63
2019-04-30T06:41:45.687Z,18.57
2019-04-30T06:44:15.427Z,21.30
2019-04-30T06:46:45.969Z,25.23
2019-04-30T06:49:16.532Z,19.63
2019-04-30T06:51:46.687Z,18.53
2019-04-30T06:54:19.159Z,18.93
2019-04-30T06:56:49.809Z,18.43
2019-04-30T06:59:20.339Z,17.70
2019-04-30T07:01:49.820Z,16.70
2019-04-30T07:04:20.316Z,16.00
2019-04-30T07:06:50.603Z,16.83
2019-04-30T07:09:31.651Z,17.73
2019-04-30T07:12:04.253Z,17.53
2019-04-30T07:14:35.215Z,17.13
2019-04-30T07:17:04.382Z,16.87
2019-04-30T07:19:50.283Z,17.03
2019-04-30T07:22:04.455Z,15.97
2019-04-30T07:24:39.424Z,17.03
2019-04-30T07:27:09.392Z,17.77
2019-04-30T07:29:39.328Z,16.97
2019-04-30T07:32:09.440Z,16.23
2019-04-30T07:34:39.540Z,16.00
2019-04-30T07:37:14.566Z,16.13
2019-04-30T07:39:39.906Z,16.43
2019-04-30T07:42:09.303Z,16.23
2019-04-30T07:44:42.331Z,16.03
2019-04-30T07:47:11.605Z,15.43
2019-04-30T07:49:51.548Z,15.17
2019-04-30T07:52:12.685Z,14.17
2019-04-30T07:54:43.435Z,15.30
2019-04-30T07:57:13.723Z,15.10
2019-04-30T07:59:42.911Z,15.90
2019-04-30T08:02:14.742Z,15.10
2019-04-30T08:04:47.586Z,13.60
2019-04-30T08:07:16.749Z,13.70
2019-04-30T08:09:49.345Z,13.03
2019-04-30T08:12:25.677Z,13.10
2019-04-30T08:14:49.563Z,11.10
2019-04-30T08:17:19.013Z,10.67
2019-04-30T08:19:48.992Z,11.30
2019-04-30T08:22:19.636Z,12.50
2019-04-30T08:24:49.241Z,12.07
2019-04-30T08:27:19.626Z,10.47
2019-04-30T08:29:50.153Z,9.60
2019-04-30T08:32:19.284Z,9.93
2019-04-30T08:34:50.096Z,8.73
2019-04-30T08:37:20.235Z,8.47
2019-04-30T08:39:49.829Z,7.30
2019-04-30T08:42:30.717Z,6.73
2019-04-30T08:44:53.043Z,6.87
2019-04-30T08:47:22.225Z,7.20
2019-04-30T08:49:51.459Z,8.00
2019-04-30T08:52:21.011Z,7.47
2019-04-30T08:54:50.823Z,7.20
2019-04-30T08:57:21.251Z,6.97
2019-04-30T08:59:51.841Z,7.20
2019-04-30T09:02:21.061Z,7.43
2019-04-30T09:04:53.506Z,6.77
2019-04-30T09:07:22.818Z,6.77
2019-04-30T09:09:52.256Z,7.23
2019-04-30T09:12:21.697Z,7.33
2019-04-30T09:14:51.607Z,7.67
2019-04-30T09:17:20.783Z,10.30
2019-04-30T09:19:50.626Z,10.80
2019-04-30T09:22:19.806Z,8.37
2019-04-30T09:24:49.847Z,9.53
2019-04-30T09:27:19.695Z,7.73
2019-04-30T09:29:49.440Z,10.57
2019-04-30T09:32:19.356Z,8.90
2019-04-30T09:34:48.914Z,8.17
2019-04-30T09:37:19.252Z,11.27
2019-04-30T09:39:49.668Z,9.23
2019-04-30T09:42:19.472Z,7.63
2019-04-30T09:44:49.378Z,8.40
2019-04-30T09:47:20.094Z,9.83
2019-04-30T09:49:49.570Z,11.33
2019-04-30T09:52:19.451Z,8.57
2019-04-30T09:54:50.244Z,11.33
2019-04-30T09:57:19.852Z,9.73
2019-04-30T09:59:52.160Z,8.67
2019-04-30T10:02:22.210Z,8.43
2019-04-30T10:04:52.041Z,10.07
2019-04-30T10:07:23.835Z,8.70
2019-04-30T10:09:54.793Z,11.43
2019-04-30T10:12:24.305Z,9.50
2019-04-30T10:14:54.569Z,8.77
2019-04-30T10:17:40.865Z,8.20
2019-04-30T10:20:12.444Z,7.03
2019-04-30T10:22:41.926Z,8.30
2019-04-30T10:25:13.914Z,7.33
2019-04-30T10:27:43.094Z,7.40
2019-04-30T10:30:13.228Z,7.07
2019-04-30T10:32:42.507Z,7.60
2019-04-30T10:35:12.588Z,8.17
2019-04-30T10:37:48.551Z,6.60
2019-04-30T10:40:28.839Z,7.57
2019-04-30T10:42:58.696Z,6.67
2019-04-30T10:45:28.793Z,6.73
2019-04-30T10:47:59.277Z,6.43
2019-04-30T10:50:28.859Z,6.77
2019-04-30T10:52:59.189Z,6.63
2019-04-30T10:55:28.719Z,7.27
2019-04-30T10:58:00.276Z,6.83
2019-04-30T11:00:49.705Z,7.20
2019-04-30T11:03:22.869Z,7.17
2019-04-30T11:05:51.143Z,6.73
2019-04-30T11:08:22.561Z,6.20
2019-04-30T11:10:51.709Z,6.13
2019-04-30T11:13:20.896Z,7.20
2019-04-30T11:15:50.066Z,6.73
2019-04-30T11:18:21.414Z,6.83
2019-04-30T11:20:51.257Z,6.37
2019-04-30T11:23:21.354Z,7.23
2019-04-30T11:25:52.002Z,6.50
2019-04-30T11:28:22.162Z,6.30
2019-04-30T11:30:53.931Z,6.67
2019-04-30T11:33:23.359Z,6.27
2019-04-30T11:36:02.248Z,6.67
2019-04-30T11:38:25.918Z,6.90
2019-04-30T11:40:58.438Z,7.50
2019-04-30T11:43:29.469Z,6.70
2019-04-30T11:46:35.909Z,6.17
2019-04-30T11:49:05.163Z,6.73
2019-04-30T11:51:35.139Z,6.70
2019-04-30T11:54:09.014Z,6.90
2019-04-30T11:56:39.316Z,6.57
2019-04-30T11:59:08.714Z,5.77
2019-04-30T12:01:38.982Z,6.43
2019-04-30T12:04:09.342Z,6.90
2019-04-30T12:06:39.537Z,6.83
2019-04-30T12:09:20.122Z,7.07
2019-04-30T12:11:50.670Z,6.80
2019-04-30T12:14:21.040Z,6.90
2019-04-30T12:16:50.863Z,6.97
2019-04-30T12:19:20.290Z,7.07
2019-04-30T12:21:51.364Z,7.20
2019-04-30T12:24:20.556Z,6.30
2019-04-30T12:26:50.219Z,6.40
2019-04-30T12:29:19.686Z,6.47
2019-04-30T12:31:49.193Z,6.80
2019-04-30T12:34:18.372Z,6.93
2019-04-30T12:36:49.595Z,7.47
2019-04-30T12:39:20.306Z,7.30
2019-04-30T12:41:50.264Z,7.47
2019-04-30T12:44:20.602Z,7.73
2019-04-30T12:46:50.052Z,7.47
2019-04-30T12:49:19.494Z,6.33
2019-04-30T12:52:19.587Z,6.40
2019-04-30T12:55:15.237Z,6.50
2019-04-30T12:57:56.441Z,7.03
2019-04-30T13:00:19.483Z,6.70
2019-04-30T13:02:49.024Z,6.40
2019-04-30T13:05:18.918Z,6.67
2019-04-30T13:07:50.610Z,6.87
2019-04-30T13:10:21.081Z,7.53
2019-04-30T13:12:51.337Z,6.70
2019-04-30T13:15:21.719Z,7.17
2019-04-30T13:17:51.136Z,7.13
2019-04-30T13:20:23.939Z,7.67
2019-04-30T13:22:52.986Z,7.40
2019-04-30T13:25:30.868Z,7.80
2019-04-30T13:27:57.003Z,7.57
2019-04-30T13:30:30.576Z,7.60
2019-04-30T13:33:28.843Z,7.77
2019-04-30T13:35:58.906Z,7.07
2019-04-30T13:38:47.561Z,6.67
2019-04-30T13:41:36.436Z,7.10
2019-04-30T13:44:11.843Z,6.53
2019-04-30T13:46:41.260Z,7.40
2019-04-30T13:49:11.207Z,7.37
2019-04-30T13:51:42.962Z,7.23
2019-04-30T13:54:12.953Z,8.13
2019-04-30T13:56:42.391Z,7.60
2019-04-30T13:59:11.587Z,7.00
2019-04-30T14:01:41.039Z,7.70
2019-04-30T14:04:20.584Z,6.87
2019-04-30T14:07:08.986Z,7.23
2019-04-30T14:09:38.147Z,7.73
2019-04-30T14:12:07.435Z,7.73
2019-04-30T14:14:39.431Z,7.60
2019-04-30T14:17:09.316Z,7.20
2019-04-30T14:19:39.030Z,7.33
2019-04-30T14:22:10.806Z,7.40
2019-04-30T14:24:41.200Z,7.80
2019-04-30T14:27:11.297Z,7.77
2019-04-30T14:29:41.974Z,7.57
2019-04-30T14:32:11.171Z,7.73
2019-04-30T14:34:43.301Z,7.40
2019-04-30T14:37:22.165Z,7.77
2019-04-30T14:39:57.503Z,7.90
2019-04-30T14:42:27.965Z,7.70
2019-04-30T14:45:09.164Z,7.50
2019-04-30T14:47:50.698Z,7.60
2019-04-30T14:50:22.189Z,7.50
2019-04-30T14:53:05.131Z,7.47
2019-04-30T14:56:08.807Z,7.57
2019-04-30T14:58:52.725Z,7.00
2019-04-30T15:01:29.718Z,6.90
2019-04-30T15:03:59.508Z,7.23
2019-04-30T15:06:29.022Z,6.50
2019-04-30T15:08:59.129Z,6.27
2019-04-30T15:11:28.952Z,6.97
2019-04-30T15:14:03.659Z,7.50
2019-04-30T15:16:33.326Z,7.27
2019-04-30T15:19:03.380Z,7.00
2019-04-30T15:21:32.817Z,7.27
2019-04-30T15:24:15.573Z,7.97
2019-04-30T15:26:44.759Z,6.97
2019-04-30T15:29:16.245Z,6.90
2019-04-30T15:31:45.632Z,6.43
2019-04-30T15:34:14.998Z,6.43
2019-04-30T15:36:45.632Z,6.43
2019-04-30T15:39:21.560Z,7.13
2019-04-30T15:41:51.906Z,6.80
2019-04-30T15:44:22.505Z,7.00
2019-04-30T15:46:55.036Z,7.23
2019-04-30T15:49:27.119Z,6.40
2019-04-30T15:51:57.127Z,6.03
2019-04-30T15:54:26.921Z,6.30
2019-04-30T15:56:56.560Z,6.20
2019-04-30T15:59:52.213Z,6.53
2019-04-30T16:02:28.757Z,6.83
2019-04-30T16:05:21.138Z,6.57
2019-04-30T16:08:11.401Z,6.13
2019-04-30T16:11:08.120Z,7.17
2019-04-30T16:14:14.483Z,6.40
2019-04-30T16:16:49.816Z,6.93
2019-04-30T16:19:20.037Z,7.40
2019-04-30T16:21:54.505Z,7.90
2019-04-30T16:24:29.230Z,7.97
2019-04-30T16:26:59.331Z,7.47
2019-04-30T16:29:29.691Z,7.30
2019-04-30T16:32:00.236Z,7.40
2019-04-30T16:34:31.276Z,7.37
2019-04-30T16:37:00.890Z,7.60
2019-04-30T16:39:30.309Z,7.33
2019-04-30T16:42:02.504Z,7.20
2019-04-30T16:44:32.277Z,6.63
2019-04-30T16:47:13.142Z,6.50
2019-04-30T16:49:33.016Z,6.73
2019-04-30T16:52:05.247Z,7.03
2019-04-30T16:54:35.114Z,7.10
2019-04-30T16:57:06.879Z,7.50
2019-04-30T16:59:42.935Z,7.53
2019-04-30T17:02:14.055Z,7.57
2019-04-30T17:05:03.324Z,7.23
2019-04-30T17:07:55.135Z,6.60
2019-04-30T17:10:50.544Z,7.03
2019-04-30T17:13:40.171Z,7.30
2019-04-30T17:16:11.503Z,6.43
2019-04-30T17:18:41.818Z,7.13
2019-04-30T17:21:11.057Z,6.87
2019-04-30T17:23:40.505Z,7.10
2019-04-30T17:26:09.642Z,7.27
2019-04-30T17:28:39.997Z,7.50
2019-04-30T17:31:09.746Z,8.00
2019-04-30T17:33:38.944Z,8.00
2019-04-30T17:36:11.035Z,7.10
2019-04-30T17:38:40.394Z,7.60
2019-04-30T17:41:10.416Z,7.67
2019-04-30T17:43:41.688Z,7.10
2019-04-30T17:46:10.914Z,7.47
2019-04-30T17:48:40.161Z,7.50
2019-04-30T17:51:09.536Z,7.17
2019-04-30T17:53:58.739Z,7.03
2019-04-30T17:56:37.507Z,7.70
2019-04-30T17:59:08.832Z,7.20
2019-04-30T18:01:42.377Z,7.57
2019-04-30T18:04:16.396Z,7.33
2019-04-30T18:06:48.382Z,7.40
2019-04-30T18:09:21.746Z,7.93
2019-04-30T18:11:56.005Z,7.93
2019-04-30T18:14:31.032Z,7.70
2019-04-30T18:17:04.193Z,8.23
2019-04-30T18:19:41.590Z,7.77
2019-04-30T18:22:19.496Z,7.70
2019-04-30T18:25:14.334Z,8.00
2019-04-30T18:28:01.031Z,8.13
2019-04-30T18:30:36.775Z,8.27
2019-04-30T18:33:11.914Z,8.10
2019-04-30T18:35:42.886Z,8.53
2019-04-30T18:38:13.569Z,7.97
2019-04-30T18:40:43.288Z,8.50
2019-04-30T18:43:13.386Z,7.53
2019-04-30T18:45:42.566Z,8.10
2019-04-30T18:48:12.839Z,8.60
2019-04-30T18:50:42.304Z,8.53
2019-04-30T18:53:16.290Z,8.57
2019-04-30T18:55:51.020Z,8.97
2019-04-30T18:58:20.216Z,10.00
2019-04-30T19:00:50.106Z,9.43
2019-04-30T19:03:21.783Z,9.50
2019-04-30T19:05:58.671Z,9.77
2019-04-30T19:08:39.488Z,9.27
2019-04-30T19:11:35.879Z,9.20
2019-04-30T19:14:40.186Z,9.43
2019-04-30T19:17:46.301Z,9.67
2019-04-30T19:20:38.561Z,9.43
2019-04-30T19:23:10.168Z,9.10
2019-04-30T19:25:39.964Z,9.33
2019-04-30T19:28:14.237Z,9.20
2019-04-30T19:30:54.461Z,9.27
2019-04-30T19:33:13.465Z,9.60
2019-04-30T19:35:44.225Z,9.40
2019-04-30T19:38:15.028Z,9.23
2019-04-30T19:40:44.571Z,10.00
2019-04-30T19:43:13.723Z,9.87
2019-04-30T19:45:46.082Z,10.33
2019-04-30T19:48:16.555Z,10.17
2019-04-30T19:50:46.034Z,10.70
2019-04-30T19:53:15.238Z,10.60
2019-04-30T19:55:45.528Z,10.30
2019-04-30T19:58:26.088Z,10.00
2019-04-30T20:00:45.899Z,9.80
2019-04-30T20:03:15.119Z,10.10
2019-04-30T20:05:45.712Z,11.47
2019-04-30T20:08:15.711Z,10.23
2019-04-30T20:10:44.866Z,10.40
2019-04-30T20:13:14.380Z,11.63
2019-04-30T20:15:44.046Z,11.37
2019-04-30T20:18:13.485Z,11.17
2019-04-30T20:20:46.969Z,10.83
2019-04-30T20:23:16.159Z,11.30
2019-04-30T20:25:45.326Z,11.03
2019-04-30T20:28:14.526Z,10.93
2019-04-30T20:30:43.685Z,11.83
2019-04-30T20:33:15.536Z,11.13
2019-04-30T20:35:44.845Z,11.90
2019-04-30T20:38:44.873Z,10.83
2019-04-30T20:41:14.415Z,10.87
2019-04-30T20:43:43.956Z,11.37
2019-04-30T20:46:13.454Z,11.47
2019-04-30T20:48:42.617Z,11.60
2019-04-30T20:51:12.038Z,11.03
2019-04-30T20:53:41.574Z,11.43
2019-04-30T20:56:11.805Z,11.73
2019-04-30T20:58:54.654Z,11.27
2019-04-30T21:01:11.927Z,11.17
2019-04-30T21:03:42.412Z,11.97
2019-04-30T21:06:12.997Z,11.40
2019-04-30T21:08:46.275Z,10.93
2019-04-30T21:11:19.211Z,12.87
2019-04-30T21:13:51.421Z,12.97
2019-04-30T21:16:24.543Z,14.97
2019-04-30T21:21:46.516Z,13.57
2019-04-30T21:24:17.959Z,12.60
2019-04-30T21:26:51.497Z,12.07
2019-04-30T21:29:23.883Z,11.17
2019-04-30T21:32:12.339Z,13.67
2019-04-30T21:34:47.689Z,13.77
2019-04-30T21:37:19.703Z,12.53
2019-04-30T21:39:50.126Z,13.10
2019-04-30T21:42:20.787Z,12.30
2019-04-30T21:44:52.467Z,11.63
2019-04-30T21:47:24.696Z,11.80
2019-04-30T21:49:54.780Z,11.60
2019-04-30T21:52:24.812Z,11.97
2019-04-30T21:54:54.979Z,11.63
2019-04-30T21:57:24.587Z,11.80
2019-04-30T21:59:58.684Z,12.03
2019-04-30T22:02:31.083Z,11.67
2019-04-30T22:05:01.715Z,11.93
2019-04-30T22:07:31.547Z,11.77
2019-04-30T22:10:02.332Z,12.47
2019-04-30T22:12:31.603Z,13.57
2019-04-30T22:15:00.872Z,11.60
2019-04-30T22:17:30.053Z,12.43
2019-04-30T22:20:01.293Z,12.07
2019-04-30T22:22:30.464Z,12.10
2019-04-30T22:24:59.837Z,13.40
2019-04-30T22:27:29.764Z,11.43
2019-04-30T22:30:02.181Z,12.53
2019-04-30T22:32:31.612Z,12.07
2019-04-30T22:35:20.175Z,12.60
2019-04-30T22:37:51.980Z,11.77
2019-04-30T22:40:22.275Z,12.07
2019-04-30T22:42:53.348Z,12.03
2019-04-30T22:45:30.953Z,12.67
2019-04-30T22:48:00.089Z,11.80
2019-04-30T22:50:30.056Z,11.73
2019-04-30T22:52:59.570Z,11.73
2019-04-30T22:55:35.384Z,11.87
2019-04-30T22:58:04.978Z,12.43
2019-04-30T23:00:43.441Z,13.97
2019-04-30T23:03:20.196Z,13.50
2019-04-30T23:05:50.579Z,13.13
2019-04-30T23:08:19.736Z,13.77
2019-04-30T23:10:49.242Z,13.30
2019-04-30T23:13:18.900Z,14.00
2019-04-30T23:15:49.991Z,13.53
2019-04-30T23:18:20.799Z,13.80
2019-04-30T23:20:50.327Z,13.23
2019-04-30T23:23:21.880Z,13.30
2019-04-30T23:25:53.598Z,12.97
2019-04-30T23:28:24.607Z,12.67
2019-04-30T23:30:53.966Z,13.13
2019-04-30T23:33:24.521Z,13.07
2019-04-30T23:35:55.744Z,12.67
2019-04-30T23:38:25.832Z,13.43
2019-04-30T23:40:55.010Z,13.07
2019-04-30T23:43:24.447Z,13.80
2019-04-30T23:45:56.397Z,12.63
2019-04-30T23:48:25.562Z,13.27
2019-04-30T23:50:56.060Z,13.00
2019-04-30T23:53:26.270Z,12.67
2019-04-30T23:56:01.615Z,13.70
2019-04-30T23:58:31.053Z,13.80
